R/v Savannah — WDA5407 — position and weather

sailwx.info

Track history (hours):
 
Tides and Currents Weather Stations Pressure Air Temp Water Temp Dewpoint Dewpoint Depression Visibility Wind Speed Wind Dir Waves Ship Positions

R/v Savannah

Owner: SKIDAWAY INSTITUTE OF OCEANOGRAPHY, SAVANNAH, GA. More information available from US FCC via Universal Licensing System.

Last reported at 2017-Nov-16 23:38 UTC. Time now 2017-Nov-17 23:20 UTC.
Position N 31°59' W 081°01'.

Length 30 m; draft 2.4 m.

Type: Dredging. MMSI: 303117000.

Date/timePositionNaut miles runAvg speedWind from/ knotsBaromVisibWave heightAir tempDewpointWater temp
2017-Nov-16 23:38N 31°59' W 081°01'0 0.1
2017-Nov-16 23:30N 31°59' W 081°01'3 5.2
2017-Nov-16 23:00N 32°02' W 081°03'3 6.8
2017-Nov-16 22:30N 32°04' W 081°01'4 8.8
2017-Nov-16 22:00N 32°03' W 080°56'510.3
2017-Nov-16 21:30N 32°02' W 080°50'5 9.0
2017-Nov-16 21:00N 31°60' W 080°45'5 9.5
2017-Nov-16 20:29N 32°02' W 080°40'38 5.5
2017-Nov-16 13:34N 32°26' W 080°05'3 8.4
2017-Nov-16 13:10N 32°28' W 080°02'1 8.3
2017-Nov-16 13:00N 32°29' W 080°00'4 8.4
2017-Nov-16 12:30N 32°31' W 079°56'9 8.5
2017-Nov-16 11:30N 32°37' W 079°49'4 8.5
2017-Nov-16 11:00N 32°40' W 079°45'4 8.6
2017-Nov-16 10:30N 32°42' W 079°41'4 8.7
2017-Nov-16 10:00N 32°45' W 079°37'  
2017-Nov-14 02:08N 32°49' W 079°31'1 7.8
2017-Nov-14 02:01N 32°49' W 079°32'4 8.0
2017-Nov-14 01:30N 32°46' W 079°36'4 8.3
2017-Nov-14 01:00N 32°44' W 079°40'4 8.4
2017-Nov-14 00:31N 32°41' W 079°44'4 8.4
2017-Nov-14 00:00N 32°38' W 079°47'4 8.5
2017-Nov-13 23:30N 32°35' W 079°51'4 8.5
2017-Nov-13 23:00N 32°32' W 079°54'4 8.6
2017-Nov-13 22:30N 32°29' W 079°58'  
2017-Nov-08 15:53N 31°59' W 081°01'1 3.7
2017-Nov-08 15:30N 32°01' W 081°01'5 8.9
2017-Nov-08 15:00N 31°56' W 080°59'1 1.8
2017-Nov-08 14:30N 31°56' W 080°58'0 0.7
2017-Nov-08 14:00N 31°55' W 080°58'0 0.1
2017-Nov-08 13:30N 31°55' W 080°58'3 6.9
2017-Nov-08 13:00N 31°54' W 080°54'3 5.9
2017-Nov-08 12:30N 31°51' W 080°53'1 0.0
2017-Nov-07 15:19N 31°52' W 080°54'2 7.6
2017-Nov-07 15:00N 31°54' W 080°54'4 7.5
2017-Nov-07 14:29N 31°56' W 080°58'1 2.6
2017-Nov-07 14:00N 31°57' W 080°59'3 5.9
2017-Nov-07 13:30N 31°59' W 081°00'1 2.1
2017-Nov-07 13:00N 31°59' W 081°01'  
Track history (hours):
 
Tides and Currents Weather Stations Pressure Air Temp Water Temp Dewpoint Dewpoint Depression Visibility Wind Speed Wind Dir Waves Ship Positions

R/v Savannah

Owner: SKIDAWAY INSTITUTE OF OCEANOGRAPHY, SAVANNAH, GA. More information available from US FCC via Universal Licensing System.

Last reported at 2017-Nov-16 23:38 UTC. Time now 2017-Nov-17 23:20 UTC.
Position N 31°59' W 081°01'.

Length 30 m; draft 2.4 m.

Type: Dredging. MMSI: 303117000.

Date/timePositionNaut miles runAvg speedWind from/ knotsBaromVisibWave heightAir tempDewpointWater temp
2017-Nov-16 23:38N 31°59' W 081°01'0 0.1
2017-Nov-16 23:30N 31°59' W 081°01'3 5.2
2017-Nov-16 23:00N 32°02' W 081°03'3 6.8
2017-Nov-16 22:30N 32°04' W 081°01'4 8.8
2017-Nov-16 22:00N 32°03' W 080°56'510.3
2017-Nov-16 21:30N 32°02' W 080°50'5 9.0
2017-Nov-16 21:00N 31°60' W 080°45'5 9.5
2017-Nov-16 20:29N 32°02' W 080°40'38 5.5
2017-Nov-16 13:34N 32°26' W 080°05'3 8.4
2017-Nov-16 13:10N 32°28' W 080°02'1 8.3
2017-Nov-16 13:00N 32°29' W 080°00'4 8.4
2017-Nov-16 12:30N 32°31' W 079°56'9 8.5
2017-Nov-16 11:30N 32°37' W 079°49'4 8.5
2017-Nov-16 11:00N 32°40' W 079°45'4 8.6
2017-Nov-16 10:30N 32°42' W 079°41'4 8.7
2017-Nov-16 10:00N 32°45' W 079°37'  
2017-Nov-14 02:08N 32°49' W 079°31'1 7.8
2017-Nov-14 02:01N 32°49' W 079°32'4 8.0
2017-Nov-14 01:30N 32°46' W 079°36'4 8.3
2017-Nov-14 01:00N 32°44' W 079°40'4 8.4
2017-Nov-14 00:31N 32°41' W 079°44'4 8.4
2017-Nov-14 00:00N 32°38' W 079°47'4 8.5
2017-Nov-13 23:30N 32°35' W 079°51'4 8.5
2017-Nov-13 23:00N 32°32' W 079°54'4 8.6
2017-Nov-13 22:30N 32°29' W 079°58'  
2017-Nov-08 15:53N 31°59' W 081°01'1 3.7
2017-Nov-08 15:30N 32°01' W 081°01'5 8.9
2017-Nov-08 15:00N 31°56' W 080°59'1 1.8
2017-Nov-08 14:30N 31°56' W 080°58'0 0.7
2017-Nov-08 14:00N 31°55' W 080°58'0 0.1
2017-Nov-08 13:30N 31°55' W 080°58'3 6.9
2017-Nov-08 13:00N 31°54' W 080°54'3 5.9
2017-Nov-08 12:30N 31°51' W 080°53'1 0.0
2017-Nov-07 15:19N 31°52' W 080°54'2 7.6
2017-Nov-07 15:00N 31°54' W 080°54'4 7.5
2017-Nov-07 14:29N 31°56' W 080°58'1 2.6
2017-Nov-07 14:00N 31°57' W 080°59'3 5.9
2017-Nov-07 13:30N 31°59' W 081°00'1 2.1
2017-Nov-07 13:00N 31°59' W 081°01'  

Dump ship's entire track history